createdAt,value
2022-11-25T00:05:44.407Z,0
2022-11-25T00:12:07.428Z,0
2022-11-25T00:18:27.393Z,0
2022-11-25T00:24:50.433Z,0
2022-11-25T00:31:10.359Z,0
2022-11-25T00:37:33.485Z,0
2022-11-25T00:43:53.376Z,0
2022-11-25T00:50:16.396Z,0
2022-11-25T00:56:36.459Z,0
2022-11-25T01:02:59.435Z,0
2022-11-25T01:09:19.399Z,0
2022-11-25T01:15:42.468Z,0
2022-11-25T01:22:02.399Z,0
2022-11-25T01:28:25.384Z,0
2022-11-25T01:34:45.369Z,0
2022-11-25T01:41:08.452Z,0
2022-11-25T01:47:28.394Z,0
2022-11-25T01:53:51.329Z,0
2022-11-25T02:00:11.336Z,0
2022-11-25T02:06:34.349Z,0
2022-11-25T02:12:54.415Z,0
2022-11-25T02:19:17.358Z,0
2022-11-25T02:25:37.427Z,0
2022-11-25T02:32:00.510Z,0
2022-11-25T02:38:20.388Z,0
2022-11-25T02:44:43.329Z,0
2022-11-25T02:51:03.490Z,0
2022-11-25T02:57:26.387Z,0
2022-11-25T03:03:46.384Z,0
2022-11-25T03:10:09.371Z,0
2022-11-25T03:16:29.509Z,0
2022-11-25T03:22:52.389Z,0
2022-11-25T03:29:12.419Z,0
2022-11-25T03:35:35.375Z,0
2022-11-25T03:41:55.382Z,0
2022-11-25T03:48:18.405Z,0
2022-11-25T03:54:38.599Z,0
2022-11-25T04:01:01.441Z,0
2022-11-25T04:07:21.475Z,0
2022-11-25T04:13:44.354Z,0
2022-11-25T04:20:04.346Z,0
2022-11-25T04:37:38.259Z,0
2022-11-25T04:43:58.322Z,0
2022-11-25T04:50:21.362Z,0
2022-11-25T04:56:41.403Z,0
2022-11-25T05:03:04.328Z,0
2022-11-25T05:09:24.389Z,0
2022-11-25T05:15:47.380Z,0
2022-11-25T05:22:07.410Z,0
2022-11-25T05:28:30.383Z,0
2022-11-25T05:34:50.467Z,0
2022-11-25T05:41:13.450Z,0
2022-11-25T05:47:33.375Z,0
2022-11-25T05:53:56.412Z,0
2022-11-25T06:00:16.392Z,0
2022-11-25T06:06:39.361Z,0
2022-11-25T06:12:59.459Z,0
2022-11-25T06:19:22.347Z,0
2022-11-25T06:25:42.390Z,0
2022-11-25T06:32:05.406Z,0
2022-11-25T06:38:25.345Z,1
2022-11-25T06:44:48.416Z,2
2022-11-25T06:51:08.373Z,5
2022-11-25T06:57:31.400Z,11
2022-11-25T07:03:51.419Z,20
2022-11-25T07:10:14.386Z,33
2022-11-25T07:16:34.412Z,83
2022-11-25T07:22:57.396Z,142
2022-11-25T07:29:44.207Z,210
2022-11-25T07:35:40.339Z,278
2022-11-25T07:42:00.359Z,323
2022-11-25T07:48:23.452Z,393
2022-11-25T07:54:43.337Z,444
2022-11-25T08:01:06.399Z,506
2022-11-25T08:07:28.596Z,686
2022-11-25T08:13:49.341Z,1006
2022-11-25T08:20:09.403Z,850
2022-11-25T08:26:32.429Z,668
2022-11-25T08:32:52.358Z,688
2022-11-25T08:39:44.620Z,998
2022-11-25T08:45:35.376Z,1144
2022-11-25T08:51:58.449Z,1252
2022-11-25T08:58:18.389Z,1281
2022-11-25T09:04:41.360Z,1348
2022-11-25T09:11:01.510Z,1388
2022-11-25T09:17:24.424Z,1472
2022-11-25T09:23:44.594Z,1553
2022-11-25T09:30:07.345Z,1648
2022-11-25T09:52:57.879Z,2016
2022-11-25T09:59:17.317Z,2184
2022-11-25T10:05:40.368Z,2308
2022-11-25T10:12:00.708Z,2407
2022-11-25T10:18:23.380Z,2625
2022-11-25T10:24:43.661Z,2682
2022-11-25T10:31:06.464Z,2733
2022-11-25T10:37:26.356Z,2840
2022-11-25T10:43:49.323Z,3020
2022-11-25T10:50:09.393Z,3122
2022-11-25T10:56:32.338Z,3385
2022-11-25T11:02:52.448Z,4054
2022-11-25T11:09:15.349Z,2019
2022-11-25T11:15:35.508Z,2257
2022-11-25T11:21:58.468Z,2613
2022-11-25T11:28:18.401Z,1624
2022-11-25T11:34:41.412Z,1788
2022-11-25T11:41:01.351Z,1811
2022-11-25T11:47:24.499Z,2562
2022-11-25T11:53:44.314Z,1293
2022-11-25T12:00:07.505Z,1755
2022-11-25T12:06:27.442Z,3826
2022-11-25T12:12:50.340Z,1853
2022-11-25T12:19:10.386Z,1747
2022-11-25T12:25:33.369Z,2102
2022-11-25T12:31:53.511Z,1963
2022-11-25T12:38:16.331Z,935
2022-11-25T12:44:36.563Z,1472
2022-11-25T12:50:59.401Z,1670
2022-11-25T12:57:19.313Z,2632
2022-11-25T13:03:42.411Z,1392
2022-11-25T13:10:02.333Z,1441
2022-11-25T13:16:25.891Z,1968
2022-11-25T13:22:45.357Z,2433
2022-11-25T13:29:08.379Z,2488
2022-11-25T13:35:28.371Z,1424
2022-11-25T13:41:51.385Z,1433
2022-11-25T13:48:11.380Z,1318
2022-11-25T13:54:34.653Z,916
2022-11-25T14:00:54.446Z,789
2022-11-25T14:07:19.942Z,749
2022-11-25T14:13:37.405Z,806
2022-11-25T14:20:00.816Z,737
2022-11-25T14:26:42.025Z,631
2022-11-25T14:32:43.376Z,775
2022-11-25T14:56:24.306Z,429
2022-11-25T15:02:44.401Z,411
2022-11-25T15:09:07.365Z,314
2022-11-25T15:15:27.338Z,241
2022-11-25T15:22:21.112Z,188
2022-11-25T15:28:10.370Z,123
2022-11-25T15:34:33.370Z,65
2022-11-25T15:40:53.401Z,25
2022-11-25T15:47:16.336Z,8
2022-11-25T15:53:36.372Z,3
2022-11-25T15:59:59.431Z,2
2022-11-25T16:06:19.347Z,1
2022-11-25T16:12:42.374Z,1
2022-11-25T16:19:02.369Z,0
2022-11-25T16:25:25.357Z,0
2022-11-25T16:31:45.615Z,0
2022-11-25T16:38:08.411Z,0
2022-11-25T16:44:28.370Z,0
2022-11-25T16:50:51.387Z,0
2022-11-25T16:57:11.346Z,0
2022-11-25T17:03:34.395Z,0
2022-11-25T17:09:54.371Z,0
2022-11-25T17:16:17.553Z,0
2022-11-25T17:22:39.436Z,0
2022-11-25T17:29:00.364Z,0
2022-11-25T17:35:20.347Z,0
2022-11-25T17:41:43.366Z,0
2022-11-25T17:48:03.505Z,0
2022-11-25T17:54:26.370Z,0
2022-11-25T18:00:46.375Z,0
2022-11-25T18:07:09.497Z,0
2022-11-25T18:13:29.364Z,0
2022-11-25T18:19:55.160Z,0
2022-11-25T18:26:12.368Z,0
2022-11-25T18:32:35.401Z,0
2022-11-25T18:38:55.404Z,0
2022-11-25T18:45:18.371Z,0
2022-11-25T18:51:38.379Z,0
2022-11-25T18:58:01.429Z,0
2022-11-25T19:04:21.370Z,0
2022-11-25T19:10:44.403Z,0
2022-11-25T19:17:04.447Z,0
2022-11-25T19:23:27.406Z,0
2022-11-25T19:29:47.349Z,0
2022-11-25T19:36:10.380Z,0
2022-11-25T19:42:30.390Z,0
2022-11-25T19:48:53.339Z,0
2022-11-25T19:55:13.393Z,0
2022-11-25T20:17:44.376Z,0
2022-11-25T20:24:07.315Z,0
2022-11-25T20:30:27.379Z,0
2022-11-25T20:36:50.479Z,0
2022-11-25T20:43:10.384Z,0
2022-11-25T20:49:33.439Z,0
2022-11-25T20:55:53.354Z,0
2022-11-25T21:02:16.460Z,0
2022-11-25T21:08:36.425Z,0
2022-11-25T21:14:59.380Z,0
2022-11-25T21:21:19.416Z,0
2022-11-25T21:27:42.321Z,0
2022-11-25T21:34:02.451Z,0
2022-11-25T21:40:25.406Z,0
2022-11-25T21:46:45.430Z,0
2022-11-25T21:53:08.565Z,0
2022-11-25T21:59:28.394Z,0
2022-11-25T22:05:51.387Z,0
2022-11-25T22:12:11.405Z,0
2022-11-25T22:18:34.354Z,0
2022-11-25T22:24:54.377Z,0
2022-11-25T22:31:17.438Z,0
2022-11-25T22:37:37.385Z,0
2022-11-25T22:44:00.466Z,0
2022-11-25T22:50:20.372Z,0
2022-11-25T22:56:43.473Z,0
2022-11-25T23:20:57.377Z,0
2022-11-25T23:27:17.373Z,0
2022-11-25T23:33:40.344Z,0
2022-11-25T23:40:00.379Z,0
2022-11-25T23:46:23.566Z,0
2022-11-25T23:52:43.362Z,0
2022-11-25T23:59:06.467Z,0
